createdAt,value
2018-12-13T00:00:13.257Z,99979.63
2018-12-13T00:02:43.368Z,99978.07
2018-12-13T00:05:15.032Z,99981.36
2018-12-13T00:07:46.888Z,99980.67
2018-12-13T00:10:17.009Z,99984.47
2018-12-13T00:12:47.174Z,99985.84
2018-12-13T00:15:22.168Z,99990.97
2018-12-13T00:17:52.911Z,99985.59
2018-12-13T00:20:22.989Z,99982.74
2018-12-13T00:22:52.971Z,99981.67
2018-12-13T00:25:24.283Z,99981.42
2018-12-13T00:27:56.041Z,99976.97
2018-12-13T00:30:26.136Z,99975.77
2018-12-13T00:32:57.180Z,99981.27
2018-12-13T00:35:27.223Z,99988.70
2018-12-13T00:37:58.232Z,99980.47
2018-12-13T00:40:29.126Z,99984.34
2018-12-13T00:42:59.291Z,99985.20
2018-12-13T00:45:30.241Z,99982.62
2018-12-13T00:48:00.087Z,99984.65
2018-12-13T00:50:30.880Z,99984.25
2018-12-13T00:53:01.203Z,99987.69
2018-12-13T00:55:32.143Z,99990.26
2018-12-13T00:58:03.236Z,99979.50
2018-12-13T01:00:33.233Z,99985.80
2018-12-13T01:03:04.282Z,99979.80
2018-12-13T01:05:34.300Z,99989.11
2018-12-13T01:08:05.328Z,99988.98
2018-12-13T01:10:36.642Z,99984.24
2018-12-13T01:13:09.278Z,99983.25
2018-12-13T01:15:40.316Z,99988.36
2018-12-13T01:18:11.159Z,99980.41
2018-12-13T01:20:41.724Z,99982.27
2018-12-13T01:23:12.283Z,99985.54
2018-12-13T01:25:43.517Z,99991.66
2018-12-13T01:28:14.164Z,99987.95
2018-12-13T01:30:43.755Z,99991.23
2018-12-13T01:33:15.242Z,99993.68
2018-12-13T01:35:47.418Z,99994.51
2018-12-13T01:38:17.513Z,99992.15
2018-12-13T01:40:47.286Z,99989.10
2018-12-13T01:43:18.484Z,99982.22
2018-12-13T01:45:48.455Z,99977.98
2018-12-13T01:48:19.337Z,99977.64
2018-12-13T01:50:51.478Z,99978.81
2018-12-13T01:53:23.504Z,99978.23
2018-12-13T01:55:54.447Z,99977.53
2018-12-13T01:58:24.952Z,99979.65
2018-12-13T02:00:55.766Z,99979.83
2018-12-13T02:03:26.299Z,99982.84
2018-12-13T02:05:56.724Z,99982.41
2018-12-13T02:08:27.394Z,99979.10
2018-12-13T02:10:58.174Z,99983.52
2018-12-13T02:13:28.396Z,99978.17
2018-12-13T02:15:59.372Z,99971.45
2018-12-13T02:18:29.372Z,99980.63
2018-12-13T02:21:00.896Z,99974.57
2018-12-13T02:23:31.192Z,99967.78
2018-12-13T02:26:01.576Z,99976.83
2018-12-13T02:28:32.554Z,99972.63
2018-12-13T02:31:03.490Z,99972.26
2018-12-13T02:33:33.727Z,99975.23
2018-12-13T02:36:05.378Z,99969.34
2018-12-13T02:38:35.506Z,99971.06
2018-12-13T02:41:05.671Z,99964.84
2018-12-13T02:43:36.783Z,99963.78
2018-12-13T02:46:07.951Z,99932.53
2018-12-13T02:48:38.436Z,99967.62
2018-12-13T02:51:08.730Z,99956.50
2018-12-13T02:53:39.860Z,99959.94
2018-12-13T02:56:09.798Z,99960.87
2018-12-13T02:58:40.805Z,99957.03
2018-12-13T03:01:10.936Z,99960.97
2018-12-13T03:03:42.185Z,99958.02
2018-12-13T03:06:14.670Z,99952.23
2018-12-13T03:08:44.179Z,99958.66
2018-12-13T03:11:15.739Z,99956.92
2018-12-13T03:13:46.667Z,99957.42
2018-12-13T03:16:18.759Z,99956.98
2018-12-13T03:18:50.910Z,99949.84
2018-12-13T03:21:21.736Z,99949.34
2018-12-13T03:23:51.782Z,99949.88
2018-12-13T03:26:22.834Z,99947.15
2018-12-13T03:28:53.880Z,99949.63
2018-12-13T03:31:23.953Z,99946.97
2018-12-13T03:33:54.924Z,99947.47
2018-12-13T03:36:26.817Z,99945.31
2018-12-13T03:38:56.300Z,99942.03
2018-12-13T03:44:06.957Z,99941.34
2018-12-13T03:46:36.903Z,99938.13
2018-12-13T03:49:07.790Z,99939.23
2018-12-13T03:51:38.901Z,99940.50
2018-12-13T03:54:10.209Z,99936.11
2018-12-13T03:56:43.593Z,99934.48
2018-12-13T03:59:17.827Z,99934.48
2018-12-13T04:01:50.931Z,99934.88
2018-12-13T04:04:21.913Z,99930.86
2018-12-13T04:06:52.964Z,99929.91
2018-12-13T04:09:23.003Z,99930.12
2018-12-13T04:11:53.046Z,99934.84
2018-12-13T04:14:24.062Z,99930.81
2018-12-13T04:16:55.731Z,99937.05
2018-12-13T04:19:26.077Z,99932.71
2018-12-13T04:21:56.105Z,99935.05
2018-12-13T04:24:27.007Z,99929.41
2018-12-13T04:26:57.153Z,99927.36
2018-12-13T04:29:28.171Z,99932.98
2018-12-13T04:31:58.114Z,99935.42
2018-12-13T04:34:29.652Z,99938.21
2018-12-13T04:37:02.987Z,99945.09
2018-12-13T04:39:33.159Z,99940.98
2018-12-13T04:42:04.207Z,99934.38
2018-12-13T04:44:35.326Z,99938.69
2018-12-13T04:47:05.512Z,99936.76
2018-12-13T04:49:36.044Z,99935.83
2018-12-13T04:52:08.500Z,99938.64
2018-12-13T04:54:38.079Z,99935.79
2018-12-13T04:57:09.165Z,99935.93
2018-12-13T04:59:40.345Z,99935.59
2018-12-13T05:02:10.390Z,99935.16
2018-12-13T05:04:41.444Z,99934.93
2018-12-13T05:07:12.313Z,99928.08
2018-12-13T05:09:42.252Z,99934.34
2018-12-13T05:12:13.294Z,99940.53
2018-12-13T05:14:43.220Z,99935.59
2018-12-13T05:17:14.761Z,99934.05
2018-12-13T05:19:44.328Z,99932.30
2018-12-13T05:22:16.103Z,99935.70
2018-12-13T05:24:48.608Z,99931.73
2018-12-13T05:27:19.203Z,99932.30
2018-12-13T05:29:50.436Z,99931.20
2018-12-13T05:32:21.416Z,99929.58
2018-12-13T05:34:52.705Z,99929.02
2018-12-13T05:37:23.279Z,99926.66
2018-12-13T05:39:53.407Z,99933.05
2018-12-13T05:42:24.250Z,99936.09
2018-12-13T05:44:55.968Z,99932.50
2018-12-13T05:47:26.336Z,99926.80
2018-12-13T05:49:56.622Z,99930.57
2018-12-13T05:52:28.000Z,99930.44
2018-12-13T05:54:58.815Z,99928.91
2018-12-13T05:57:29.447Z,99931.43
2018-12-13T06:00:00.378Z,99938.45
2018-12-13T06:02:31.227Z,99932.06
2018-12-13T06:05:01.597Z,99932.42
2018-12-13T06:07:32.580Z,99933.42
2018-12-13T06:10:03.168Z,99940.06
2018-12-13T06:12:33.663Z,99940.43
2018-12-13T06:15:03.588Z,99939.83
2018-12-13T06:17:34.844Z,99941.36
2018-12-13T06:20:05.711Z,99946.65
2018-12-13T06:22:35.633Z,99952.67
2018-12-13T06:25:08.163Z,99960.98
2018-12-13T06:27:40.327Z,99955.52
2018-12-13T06:30:10.557Z,99961.75
2018-12-13T06:32:41.604Z,99967.22
2018-12-13T06:35:12.723Z,99966.02
2018-12-13T06:37:43.691Z,99970.23
2018-12-13T06:40:15.689Z,99970.95
2018-12-13T06:42:47.708Z,99971.36
2018-12-13T06:45:17.719Z,99971.15
2018-12-13T06:47:50.498Z,99973.94
2018-12-13T06:50:22.771Z,99970.03
2018-12-13T06:52:53.822Z,99975.53
2018-12-13T06:55:23.801Z,99973.41
2018-12-13T06:57:54.768Z,99972.36
2018-12-13T07:00:25.888Z,99971.89
2018-12-13T07:02:56.956Z,99969.38
2018-12-13T07:05:27.867Z,99975.70
2018-12-13T07:07:58.845Z,99973.58
2018-12-13T07:10:29.649Z,99968.81
2018-12-13T07:12:59.875Z,99972.79
2018-12-13T07:15:30.036Z,99976.10
2018-12-13T07:18:00.944Z,99972.39
2018-12-13T07:20:31.987Z,99965.50
2018-12-13T07:23:01.902Z,99971.13
2018-12-13T07:25:32.987Z,99971.30
2018-12-13T07:28:02.997Z,99969.02
2018-12-13T07:30:33.840Z,99969.11
2018-12-13T07:33:03.880Z,99961.96
2018-12-13T07:35:35.158Z,99959.41
2018-12-13T07:38:05.989Z,99962.59
2018-12-13T07:40:35.859Z,99959.31
2018-12-13T07:43:06.930Z,99955.64
2018-12-13T07:45:38.559Z,99961.09
2018-12-13T07:48:10.911Z,99960.63
2018-12-13T07:50:41.888Z,99957.09
2018-12-13T07:53:13.983Z,99960.13
2018-12-13T07:55:44.025Z,99954.43
2018-12-13T07:58:14.067Z,99957.19
2018-12-13T08:00:44.072Z,99957.44
2018-12-13T08:03:18.819Z,99958.17
2018-12-13T08:05:50.045Z,99958.46
2018-12-13T08:08:21.148Z,99953.57
2018-12-13T08:10:51.162Z,99955.69
2018-12-13T08:13:21.586Z,99959.45
2018-12-13T08:15:51.139Z,99954.91
2018-12-13T08:18:23.129Z,99960.23
2018-12-13T08:20:54.822Z,99957.63
2018-12-13T08:23:25.243Z,99955.98
2018-12-13T08:25:55.575Z,99958.98
2018-12-13T08:28:26.037Z,99954.79
2018-12-13T08:30:57.900Z,99955.52
2018-12-13T08:33:27.610Z,99964.21
2018-12-13T08:35:58.118Z,99964.27
2018-12-13T08:38:28.731Z,99965.56
2018-12-13T08:40:59.236Z,99960.75
2018-12-13T08:43:30.303Z,99968.39
2018-12-13T08:46:00.759Z,99962.74
2018-12-13T08:48:31.408Z,99973.13
2018-12-13T08:51:02.240Z,99973.41
2018-12-13T08:53:32.917Z,99961.88
2018-12-13T08:56:08.744Z,99967.38
2018-12-13T08:58:40.197Z,99969.84
2018-12-13T09:01:11.334Z,99968.80
2018-12-13T09:03:42.484Z,99965.08
2018-12-13T09:06:12.546Z,99966.95
2018-12-13T09:08:43.178Z,99969.56
2018-12-13T09:11:14.254Z,99960.34
2018-12-13T09:13:44.225Z,99964.31
2018-12-13T09:16:16.385Z,99964.37
2018-12-13T09:18:48.211Z,99963.20
2018-12-13T09:21:20.304Z,99960.31
2018-12-13T09:23:51.223Z,99962.37
2018-12-13T09:26:21.595Z,99964.80
2018-12-13T09:28:51.367Z,99959.94
2018-12-13T09:31:22.586Z,99958.78
2018-12-13T09:33:53.438Z,99956.63
2018-12-13T09:36:23.496Z,99956.13
2018-12-13T09:38:55.514Z,99954.52
2018-12-13T09:41:27.456Z,99955.70
2018-12-13T09:43:59.765Z,99950.63
2018-12-13T09:46:31.549Z,99944.23
2018-12-13T09:49:02.409Z,99939.77
2018-12-13T09:51:32.617Z,99938.66
2018-12-13T09:54:03.716Z,99937.54
2018-12-13T09:56:34.385Z,99929.84
2018-12-13T09:59:04.699Z,99933.45
2018-12-13T10:01:35.559Z,99927.66
2018-12-13T10:04:06.479Z,99931.38
2018-12-13T10:06:36.674Z,99926.11
2018-12-13T10:09:08.513Z,99927.50
2018-12-13T10:11:38.478Z,99921.58
2018-12-13T10:14:08.614Z,99918.11
2018-12-13T10:16:39.815Z,99921.38
2018-12-13T10:19:10.524Z,99916.23
2018-12-13T10:21:42.587Z,99914.77
2018-12-13T10:24:12.328Z,99906.64
2018-12-13T10:26:42.946Z,99910.17
2018-12-13T10:29:13.393Z,99906.48
2018-12-13T10:31:43.666Z,99902.92
2018-12-13T10:34:14.274Z,99900.48
2018-12-13T10:36:44.432Z,99904.36
2018-12-13T10:39:14.746Z,99898.56
2018-12-13T10:41:44.423Z,99897.80
2018-12-13T10:44:18.654Z,99896.56
2018-12-13T10:46:49.655Z,99897.51
2018-12-13T10:49:20.723Z,99891.58
2018-12-13T10:51:50.773Z,99896.45
2018-12-13T10:54:22.727Z,99902.06
2018-12-13T10:56:52.623Z,99899.06
2018-12-13T10:59:22.803Z,99896.31
2018-12-13T11:01:59.379Z,99895.96
2018-12-13T11:04:30.853Z,99888.92
2018-12-13T11:07:00.974Z,99887.95
2018-12-13T11:09:31.816Z,99886.69
2018-12-13T11:12:03.060Z,99892.76
2018-12-13T11:14:32.948Z,99890.33
2018-12-13T11:17:03.752Z,99886.72
2018-12-13T11:19:35.055Z,99885.28
2018-12-13T11:22:05.925Z,99886.17
2018-12-13T11:24:36.867Z,99875.17
2018-12-13T11:27:17.730Z,99881.30
2018-12-13T11:30:06.426Z,99874.34
2018-12-13T11:32:35.881Z,99877.23
2018-12-13T11:35:05.977Z,99870.91
2018-12-13T11:37:39.715Z,99875.36
2018-12-13T11:40:16.865Z,99874.19
2018-12-13T11:42:47.437Z,99874.53
2018-12-13T11:45:17.848Z,99873.55
2018-12-13T11:47:48.192Z,99877.51
2018-12-13T11:50:19.208Z,99870.05
2018-12-13T11:52:49.692Z,99875.58
2018-12-13T11:55:41.522Z,99872.78
2018-12-13T11:58:15.523Z,99873.27
2018-12-13T12:00:45.069Z,99862.98
2018-12-13T12:03:17.350Z,99862.03
2018-12-13T12:05:49.322Z,99865.47
2018-12-13T12:08:21.197Z,99872.36
2018-12-13T12:10:52.062Z,99868.03
2018-12-13T12:13:22.308Z,99874.27
2018-12-13T12:15:54.219Z,99866.59
2018-12-13T12:18:26.027Z,99866.19
2018-12-13T12:20:57.253Z,99865.02
2018-12-13T12:23:28.323Z,99847.66
2018-12-13T12:25:58.993Z,99861.52
2018-12-13T12:28:29.431Z,99863.98
2018-12-13T12:31:00.118Z,99863.86
2018-12-13T12:33:31.603Z,99860.88
2018-12-13T12:36:02.351Z,99866.20
2018-12-13T12:38:33.428Z,99863.77
2018-12-13T12:41:03.339Z,99867.36
2018-12-13T12:43:34.320Z,99858.36
2018-12-13T12:46:05.182Z,99867.82
2018-12-13T12:48:41.023Z,99867.17
2018-12-13T12:51:18.159Z,99863.86
2018-12-13T12:53:48.331Z,99867.73
2018-12-13T12:56:19.470Z,99864.78
2018-12-13T12:58:49.392Z,99868.47
2018-12-13T13:01:20.389Z,99866.01
2018-12-13T13:03:51.460Z,99866.56
2018-12-13T13:06:22.328Z,99862.17
2018-12-13T13:08:52.993Z,99864.78
2018-12-13T13:11:23.514Z,99865.52
2018-12-13T13:13:54.398Z,99867.57
2018-12-13T13:16:24.423Z,99867.94
2018-12-13T13:18:55.608Z,99868.64
2018-12-13T13:21:26.418Z,99864.16
2018-12-13T13:23:57.351Z,99863.95
2018-12-13T13:26:27.389Z,99869.23
2018-12-13T13:28:58.455Z,99867.08
2018-12-13T13:31:28.388Z,99865.22
2018-12-13T13:34:00.411Z,99866.28
2018-12-13T13:36:36.008Z,99869.14
2018-12-13T13:39:08.461Z,99864.16
2018-12-13T13:41:38.551Z,99872.58
2018-12-13T13:44:10.150Z,99867.14
2018-12-13T13:46:42.500Z,99862.41
2018-12-13T13:49:13.880Z,99867.48
2018-12-13T13:51:43.398Z,99873.07
2018-12-13T13:54:14.652Z,99869.02
2018-12-13T13:56:44.803Z,99874.94
2018-12-13T13:59:15.729Z,99865.23
2018-12-13T14:01:45.230Z,99879.66
2018-12-13T14:04:17.612Z,99873.73
2018-12-13T14:06:48.700Z,99875.58
2018-12-13T14:09:18.589Z,99869.22
2018-12-13T14:11:49.459Z,99872.59
2018-12-13T14:14:20.445Z,99865.35
2018-12-13T14:16:50.748Z,99866.47
2018-12-13T14:19:22.711Z,99861.34
2018-12-13T14:21:54.647Z,99868.79
2018-12-13T14:24:26.635Z,99867.53
2018-12-13T14:26:56.804Z,99868.79
2018-12-13T14:29:28.703Z,99866.61
2018-12-13T14:32:00.736Z,99862.01
2018-12-13T14:34:30.283Z,99863.76
2018-12-13T14:37:02.878Z,99873.16
2018-12-13T14:39:34.477Z,99884.32
2018-12-13T14:42:05.312Z,99876.64
2018-12-13T14:44:35.674Z,99885.66
2018-12-13T14:47:06.900Z,99882.61
2018-12-13T14:49:36.785Z,99888.93
2018-12-13T14:52:09.510Z,99887.55
2018-12-13T14:54:45.255Z,99886.13
2018-12-13T14:57:17.750Z,99883.44
2018-12-13T14:59:47.960Z,99884.56
2018-12-13T15:02:18.904Z,99882.34
2018-12-13T15:04:49.466Z,99886.19
2018-12-13T15:07:20.061Z,99888.14
2018-12-13T15:09:51.263Z,99884.03
2018-12-13T15:12:22.202Z,99884.23
2018-12-13T15:14:51.800Z,99880.27
2018-12-13T15:17:23.126Z,99880.73
2018-12-13T15:19:54.141Z,99877.78
2018-12-13T15:22:23.924Z,99876.30
2018-12-13T15:24:55.432Z,99879.20
2018-12-13T15:27:26.020Z,99875.44
2018-12-13T15:29:56.892Z,99874.97
2018-12-13T15:32:28.071Z,99877.48
2018-12-13T15:34:59.070Z,99878.15
2018-12-13T15:37:29.051Z,99874.87
2018-12-13T15:40:00.126Z,99879.07
2018-12-13T15:42:30.629Z,99873.64
2018-12-13T15:45:02.991Z,99873.70
2018-12-13T15:47:32.920Z,99870.36
2018-12-13T15:50:03.212Z,99866.59
2018-12-13T15:52:34.100Z,99866.16
2018-12-13T15:55:04.228Z,99861.13
2018-12-13T15:57:35.115Z,99870.23
2018-12-13T16:00:05.991Z,99871.95
2018-12-13T16:02:36.147Z,99862.22
2018-12-13T16:05:08.096Z,99864.53
2018-12-13T16:07:40.031Z,99860.66
2018-12-13T16:10:10.137Z,99854.11
2018-12-13T16:12:39.670Z,99858.81
2018-12-13T16:15:12.086Z,99858.74
2018-12-13T16:17:43.395Z,99861.98
2018-12-13T16:20:14.264Z,99864.66
2018-12-13T16:22:44.264Z,99866.69
2018-12-13T16:25:15.271Z,99872.08
2018-12-13T16:27:44.843Z,99869.53
2018-12-13T16:30:22.301Z,99874.14
2018-12-13T16:32:52.655Z,99871.81
2018-12-13T16:35:23.128Z,99872.64
2018-12-13T16:37:53.993Z,99864.59
2018-12-13T16:40:24.225Z,99870.72
2018-12-13T16:42:55.707Z,99868.97
2018-12-13T16:45:26.107Z,99874.33
2018-12-13T16:47:56.720Z,99873.44
2018-12-13T16:50:27.349Z,99878.20
2018-12-13T16:52:57.343Z,99873.83
2018-12-13T16:55:29.057Z,99869.31
2018-12-13T16:57:59.566Z,99866.38
2018-12-13T17:00:30.055Z,99870.81
2018-12-13T17:03:00.449Z,99866.09
2018-12-13T17:05:31.225Z,99860.98
2018-12-13T17:08:01.407Z,99856.45
2018-12-13T17:10:32.309Z,99865.35
2018-12-13T17:13:02.424Z,99864.42
2018-12-13T17:15:32.152Z,99864.55
2018-12-13T17:18:03.515Z,99859.43
2018-12-13T17:20:34.140Z,99862.41
2018-12-13T17:23:04.950Z,99870.66
2018-12-13T17:25:35.396Z,99864.25
2018-12-13T17:28:05.727Z,99866.09
2018-12-13T17:30:36.357Z,99876.77
2018-12-13T17:33:07.326Z,99872.41
2018-12-13T17:35:38.061Z,99866.67
2018-12-13T17:38:08.434Z,99870.92
2018-12-13T17:40:39.059Z,99876.59
2018-12-13T17:43:09.579Z,99874.98
2018-12-13T17:45:40.621Z,99873.63
2018-12-13T17:48:10.634Z,99881.58
2018-12-13T17:50:42.040Z,99877.21
2018-12-13T17:53:12.606Z,99874.73
2018-12-13T17:55:43.481Z,99881.18
2018-12-13T17:58:13.775Z,99880.22
2018-12-13T18:00:44.727Z,99884.95
2018-12-13T18:03:15.693Z,99878.59
2018-12-13T18:05:45.328Z,99875.69
2018-12-13T18:08:16.623Z,99880.98
2018-12-13T18:10:47.843Z,99880.69
2018-12-13T18:13:18.359Z,99876.05
2018-12-13T18:15:55.528Z,99872.28
2018-12-13T18:18:25.686Z,99876.72
2018-12-13T18:20:55.902Z,99885.22
2018-12-13T18:26:21.847Z,99891.34
2018-12-13T18:31:34.867Z,99894.63
2018-12-13T18:34:05.763Z,99893.86
2018-12-13T18:36:35.821Z,99893.34
2018-12-13T18:39:08.175Z,99892.02
2018-12-13T18:41:39.827Z,99892.77
2018-12-13T18:44:10.727Z,99894.92
2018-12-13T18:46:40.827Z,99896.84
2018-12-13T18:49:10.671Z,99892.47
2018-12-13T18:51:42.517Z,99894.06
2018-12-13T18:54:12.926Z,99890.48
2018-12-13T18:56:44.002Z,99890.28
2018-12-13T18:59:14.849Z,99893.86
2018-12-13T19:01:45.282Z,99889.56
2018-12-13T19:04:15.658Z,99897.77
2018-12-13T19:06:45.248Z,99898.30
2018-12-13T19:09:14.925Z,99899.22
2018-12-13T19:11:45.108Z,99910.28
2018-12-13T19:14:17.039Z,99911.58
2018-12-13T19:16:49.435Z,99905.58
2018-12-13T19:19:21.127Z,99907.87
2018-12-13T19:21:51.613Z,99909.81
2018-12-13T19:24:21.992Z,99913.12
2018-12-13T19:26:52.243Z,99916.31
2018-12-13T19:29:23.262Z,99911.47
2018-12-13T19:31:54.131Z,99908.55
2018-12-13T19:34:24.468Z,99910.80
2018-12-13T19:37:01.172Z,99917.93
2018-12-13T19:39:32.159Z,99918.92
2018-12-13T19:42:02.118Z,99917.53
2018-12-13T19:44:33.045Z,99921.59
2018-12-13T19:47:03.160Z,99930.91
2018-12-13T19:49:34.158Z,99931.77
2018-12-13T19:54:47.789Z,99930.34
2018-12-13T19:57:18.164Z,99931.06
2018-12-13T19:59:49.612Z,99935.44
2018-12-13T20:02:19.184Z,99935.57
2018-12-13T20:04:50.235Z,99943.05
2018-12-13T20:07:21.301Z,99936.09
2018-12-13T20:09:52.373Z,99938.66
2018-12-13T20:12:22.351Z,99938.91
2018-12-13T20:14:53.273Z,99942.22
2018-12-13T20:17:24.270Z,99939.61
2018-12-13T20:19:55.338Z,99940.20
2018-12-13T20:22:26.308Z,99933.26
2018-12-13T20:24:57.276Z,99941.00
2018-12-13T20:27:27.440Z,99939.87
2018-12-13T20:29:57.336Z,99940.17
2018-12-13T20:32:28.431Z,99944.09
2018-12-13T20:34:58.568Z,99938.57
2018-12-13T20:37:29.449Z,99942.41
2018-12-13T20:39:59.462Z,99937.45
2018-12-13T20:42:30.109Z,99944.80
2018-12-13T20:45:00.417Z,99937.75
2018-12-13T20:47:31.360Z,99945.03
2018-12-13T20:50:05.049Z,99942.84
2018-12-13T20:52:37.537Z,99938.66
2018-12-13T20:55:08.445Z,99939.60
2018-12-13T20:57:38.465Z,99932.42
2018-12-13T21:00:10.791Z,99936.09
2018-12-13T21:02:42.469Z,99938.57
2018-12-13T21:05:14.384Z,99942.02
2018-12-13T21:07:52.916Z,99934.25
2018-12-13T21:10:23.536Z,99940.43
2018-12-13T21:12:54.549Z,99935.67
2018-12-13T21:15:27.440Z,99937.03
2018-12-13T21:17:58.881Z,99942.52
2018-12-13T21:20:32.291Z,99942.69
2018-12-13T21:23:03.448Z,99941.72
2018-12-13T21:25:33.600Z,99952.67
2018-12-13T21:28:04.440Z,99945.46
2018-12-13T21:30:35.656Z,99946.45
2018-12-13T21:33:07.548Z,99952.34
2018-12-13T21:35:39.518Z,99951.98
2018-12-13T21:38:09.672Z,99949.27
2018-12-13T21:40:41.693Z,99942.22
2018-12-13T21:43:13.582Z,99943.84
2018-12-13T21:45:43.633Z,99950.52
2018-12-13T21:48:13.335Z,99949.77
2018-12-13T21:50:45.170Z,99952.55
2018-12-13T21:53:15.549Z,99949.73
2018-12-13T21:55:45.540Z,99948.51
2018-12-13T21:58:15.234Z,99947.92
2018-12-13T22:00:45.388Z,99945.73
2018-12-13T22:03:15.777Z,99938.61
2018-12-13T22:05:45.362Z,99943.11
2018-12-13T22:08:17.595Z,99946.89
2018-12-13T22:10:47.714Z,99947.05
2018-12-13T22:13:18.902Z,99947.15
2018-12-13T22:15:48.609Z,99947.61
2018-12-13T22:18:19.597Z,99943.73
2018-12-13T22:20:53.244Z,99947.37
2018-12-13T22:23:23.749Z,99946.30
2018-12-13T22:25:55.030Z,99944.39
2018-12-13T22:28:24.719Z,99940.98
2018-12-13T22:30:54.856Z,99939.95
2018-12-13T22:33:27.024Z,99944.15
2018-12-13T22:35:57.597Z,99941.93
2018-12-13T22:38:28.054Z,99946.23
2018-12-13T22:40:58.265Z,99938.69
2018-12-13T22:43:32.821Z,99936.54
2018-12-13T22:46:04.160Z,99937.00
2018-12-13T22:48:35.817Z,99932.77
2018-12-13T22:51:06.888Z,99933.16
2018-12-13T22:53:36.934Z,99935.67
2018-12-13T22:56:07.979Z,99935.78
2018-12-13T22:58:37.926Z,99935.58
2018-12-13T23:01:08.967Z,99930.88
2018-12-13T23:03:42.960Z,99936.50
2018-12-13T23:06:13.080Z,99936.33
2018-12-13T23:08:43.599Z,99939.56
2018-12-13T23:11:14.429Z,99940.86
2018-12-13T23:13:44.915Z,99927.15
2018-12-13T23:16:16.966Z,99936.61
2018-12-13T23:18:49.055Z,99934.16
2018-12-13T23:21:21.962Z,99931.75
2018-12-13T23:23:53.231Z,99930.86
2018-12-13T23:26:23.157Z,99927.98
2018-12-13T23:28:55.024Z,99929.30
2018-12-13T23:31:25.439Z,99926.19
2018-12-13T23:33:55.053Z,99927.58
2018-12-13T23:36:26.100Z,99922.92
2018-12-13T23:38:58.183Z,99926.13
2018-12-13T23:41:28.107Z,99919.61
2018-12-13T23:43:58.024Z,99930.25
2018-12-13T23:46:29.344Z,99930.01
2018-12-13T23:49:00.254Z,99926.95
2018-12-13T23:51:30.115Z,99919.59
2018-12-13T23:54:07.937Z,99922.91
2018-12-13T23:56:40.668Z,99926.02
2018-12-13T23:59:11.261Z,99924.26
